Spring Bluff, Georgia
Current Conditions -  °F | °C
As of 3:53 PM on Friday 31 Oct 2014 (Local Time) from KSSI Reporting Station
Scattered Clouds Scattered Clouds  
Wind Chill: 73°   Ceiling: Unl
Heat Index: 73°   Visibility: 10mi
Dew Point: 47°   Wind: 7mph
Humidity: 39%   Direction: 310°NW
Pressure: 29.79"   Gusts: NA
Location:  31.0438°N, 81.5786°W
Report Text: KSSI 311953Z AUTO 31006KT 10SM SCT060 23/08 A2979 RMK AO2 SLP088 T02280083
Loading
Personal Weather Stations






























Interactive Weather Map
Tropical Storm Tracking
New forecast layout! Learn more

10-Day Weather Forecast

Advertisements
Track Severe Weather on mobile